Terminal Aerodrome Forecast
Issued by NWS

Home | Current Version | Previous Version | Text Only | Print | Product List | Glossary On
Versions: 1 2 3 4 5 6 7 8 9 10 11 12 13 14 15 16 17 18
916
FTUS43 KMQT 301729
TAFIWD
TAF
KIWD 301729Z 3018/0118 04007KT P6SM SCT030
     FM302100 04006KT P6SM BKN030
     FM010700 00000KT 2SM BR BKN050
     FM011300 06005KT P6SM BKN045=

USA.gov is the U.S. government's official web portal to all federal, state and local government web resources and services.